< < Back
Terminal Aerodrome Forecast


Current Version              Previous Versions:   1  2  3  4  5  6  7  8  9  

Terminal Aerodrome Forecast

017
FTUS42 KCAE 241700
TAFAGS
TAF
KAGS 241720Z 2418/2518 VRB04KT P6SM SCT200=



Latest METAR

647
SAUS70 KWBC 242000 RRI
MTRAGS
METAR KAGS 241953Z 06004KT 10SM CLR 24/05 A2998 RMK AO2 SLP150
T02390050


USA.gov is the U.S. government's official web portal to all federal, state and local government web resources and services.